sensor_id;sensor_type;location;lat;lon;timestamp;temperature;humidity
51839;DHT22;37886;53.174;6.368;2023-02-23T00:01:18;7.30;99.90
51839;DHT22;37886;53.174;6.368;2023-02-23T00:03:45;7.30;99.90
51839;DHT22;37886;53.174;6.368;2023-02-23T00:06:11;7.40;99.90
51839;DHT22;37886;53.174;6.368;2023-02-23T00:08:38;7.30;99.90
51839;DHT22;37886;53.174;6.368;2023-02-23T00:11:06;7.40;99.90
51839;DHT22;37886;53.174;6.368;2023-02-23T00:13:33;7.40;99.90
51839;DHT22;37886;53.174;6.368;2023-02-23T00:16:10;7.40;99.90
51839;DHT22;37886;53.174;6.368;2023-02-23T00:18:49;7.50;99.90
51839;DHT22;37886;53.174;6.368;2023-02-23T00:21:24;7.40;99.90
51839;DHT22;37886;53.174;6.368;2023-02-23T00:23:58;7.50;99.90
51839;DHT22;37886;53.174;6.368;2023-02-23T00:26:27;7.50;99.90
51839;DHT22;37886;53.174;6.368;2023-02-23T00:28:59;7.50;99.90
51839;DHT22;37886;53.174;6.368;2023-02-23T00:31:26;7.50;99.90
51839;DHT22;37886;53.174;6.368;2023-02-23T00:33:54;7.50;99.90
51839;DHT22;37886;53.174;6.368;2023-02-23T00:36:22;7.50;99.90
51839;DHT22;37886;53.174;6.368;2023-02-23T00:38:52;7.50;99.90
51839;DHT22;37886;53.174;6.368;2023-02-23T00:41:18;7.50;99.90
51839;DHT22;37886;53.174;6.368;2023-02-23T00:43:47;7.50;99.90
51839;DHT22;37886;53.174;6.368;2023-02-23T00:46:17;7.50;99.90
51839;DHT22;37886;53.174;6.368;2023-02-23T00:48:44;7.50;99.90
51839;DHT22;37886;53.174;6.368;2023-02-23T00:51:11;7.50;99.90
51839;DHT22;37886;53.174;6.368;2023-02-23T00:53:37;7.60;99.90
51839;DHT22;37886;53.174;6.368;2023-02-23T00:56:04;7.50;99.90
51839;DHT22;37886;53.174;6.368;2023-02-23T00:58:30;7.50;99.90
51839;DHT22;37886;53.174;6.368;2023-02-23T01:00:56;7.60;99.90
51839;DHT22;37886;53.174;6.368;2023-02-23T01:03:28;7.60;99.90
51839;DHT22;37886;53.174;6.368;2023-02-23T01:06:01;7.50;99.90
51839;DHT22;37886;53.174;6.368;2023-02-23T01:08:35;7.60;99.90
51839;DHT22;37886;53.174;6.368;2023-02-23T01:11:11;7.60;99.90
51839;DHT22;37886;53.174;6.368;2023-02-23T01:13:37;7.60;99.90
51839;DHT22;37886;53.174;6.368;2023-02-23T01:16:05;7.60;99.90
51839;DHT22;37886;53.174;6.368;2023-02-23T01:18:32;7.60;99.90
51839;DHT22;37886;53.174;6.368;2023-02-23T01:21:01;7.60;99.90
51839;DHT22;37886;53.174;6.368;2023-02-23T01:23:27;7.60;99.90
51839;DHT22;37886;53.174;6.368;2023-02-23T01:25:53;7.50;99.90
51839;DHT22;37886;53.174;6.368;2023-02-23T01:28:18;7.50;99.90
51839;DHT22;37886;53.174;6.368;2023-02-23T01:30:44;7.50;99.90
51839;DHT22;37886;53.174;6.368;2023-02-23T01:33:10;7.50;99.90
51839;DHT22;37886;53.174;6.368;2023-02-23T01:35:37;7.50;99.90
51839;DHT22;37886;53.174;6.368;2023-02-23T01:38:03;7.50;99.90
51839;DHT22;37886;53.174;6.368;2023-02-23T01:40:29;7.50;99.90
51839;DHT22;37886;53.174;6.368;2023-02-23T01:43:09;7.50;99.90
51839;DHT22;37886;53.174;6.368;2023-02-23T01:45:36;7.50;99.90
51839;DHT22;37886;53.174;6.368;2023-02-23T01:48:07;7.50;99.90
51839;DHT22;37886;53.174;6.368;2023-02-23T01:51:04;7.50;99.90
51839;DHT22;37886;53.174;6.368;2023-02-23T01:53:32;7.50;99.90
51839;DHT22;37886;53.174;6.368;2023-02-23T01:56:08;7.50;99.90
51839;DHT22;37886;53.174;6.368;2023-02-23T01:58:44;7.50;99.90
51839;DHT22;37886;53.174;6.368;2023-02-23T02:01:10;7.50;99.90
51839;DHT22;37886;53.174;6.368;2023-02-23T02:04:00;7.50;99.90
51839;DHT22;37886;53.174;6.368;2023-02-23T02:06:28;7.50;99.90
51839;DHT22;37886;53.174;6.368;2023-02-23T02:08:57;7.40;99.90
51839;DHT22;37886;53.174;6.368;2023-02-23T02:11:25;7.40;99.90
51839;DHT22;37886;53.174;6.368;2023-02-23T02:14:27;7.40;99.90
51839;DHT22;37886;53.174;6.368;2023-02-23T02:17:22;7.40;99.90
51839;DHT22;37886;53.174;6.368;2023-02-23T02:20:11;7.40;99.90
51839;DHT22;37886;53.174;6.368;2023-02-23T02:39:19;7.40;99.90
51839;DHT22;37886;53.174;6.368;2023-02-23T02:45:02;7.40;99.90
51839;DHT22;37886;53.174;6.368;2023-02-23T02:50:13;7.30;99.90
51839;DHT22;37886;53.174;6.368;2023-02-23T02:52:45;7.30;99.90
51839;DHT22;37886;53.174;6.368;2023-02-23T02:55:35;7.30;99.90
51839;DHT22;37886;53.174;6.368;2023-02-23T02:58:04;7.40;99.90
51839;DHT22;37886;53.174;6.368;2023-02-23T03:00:44;7.30;99.90
51839;DHT22;37886;53.174;6.368;2023-02-23T03:06:29;7.30;99.90
51839;DHT22;37886;53.174;6.368;2023-02-23T03:12:36;7.30;99.90
51839;DHT22;37886;53.174;6.368;2023-02-23T03:21:25;7.30;99.90
51839;DHT22;37886;53.174;6.368;2023-02-23T03:24:29;7.30;99.90
51839;DHT22;37886;53.174;6.368;2023-02-23T03:27:34;7.30;99.90
51839;DHT22;37886;53.174;6.368;2023-02-23T03:30:37;7.30;99.90
51839;DHT22;37886;53.174;6.368;2023-02-23T03:33:35;7.30;99.90
51839;DHT22;37886;53.174;6.368;2023-02-23T03:36:25;7.30;99.90
51839;DHT22;37886;53.174;6.368;2023-02-23T03:39:18;7.30;99.90
51839;DHT22;37886;53.174;6.368;2023-02-23T03:42:06;7.30;99.90
51839;DHT22;37886;53.174;6.368;2023-02-23T03:44:54;7.30;99.90
51839;DHT22;37886;53.174;6.368;2023-02-23T03:47:40;7.30;99.90
51839;DHT22;37886;53.174;6.368;2023-02-23T03:50:38;7.30;99.90
51839;DHT22;37886;53.174;6.368;2023-02-23T03:53:33;7.30;99.90
51839;DHT22;37886;53.174;6.368;2023-02-23T03:56:23;7.30;99.90
51839;DHT22;37886;53.174;6.368;2023-02-23T03:59:11;7.40;99.90
51839;DHT22;37886;53.174;6.368;2023-02-23T04:01:58;7.30;99.90
51839;DHT22;37886;53.174;6.368;2023-02-23T04:04:45;7.30;99.90
51839;DHT22;37886;53.174;6.368;2023-02-23T04:07:30;7.30;99.90
51839;DHT22;37886;53.174;6.368;2023-02-23T04:10:16;7.30;99.90
51839;DHT22;37886;53.174;6.368;2023-02-23T04:13:06;7.30;99.90
51839;DHT22;37886;53.174;6.368;2023-02-23T04:15:51;7.40;99.90
51839;DHT22;37886;53.174;6.368;2023-02-23T04:18:27;7.40;99.90
51839;DHT22;37886;53.174;6.368;2023-02-23T04:20:54;7.40;99.90
51839;DHT22;37886;53.174;6.368;2023-02-23T04:23:20;7.30;99.90
51839;DHT22;37886;53.174;6.368;2023-02-23T04:25:48;7.30;99.90
51839;DHT22;37886;53.174;6.368;2023-02-23T04:28:14;7.30;99.90
51839;DHT22;37886;53.174;6.368;2023-02-23T04:30:41;7.30;99.90
51839;DHT22;37886;53.174;6.368;2023-02-23T04:33:07;7.30;99.90
51839;DHT22;37886;53.174;6.368;2023-02-23T04:35:32;7.30;99.90
51839;DHT22;37886;53.174;6.368;2023-02-23T04:37:59;7.30;99.90
51839;DHT22;37886;53.174;6.368;2023-02-23T04:40:25;7.30;99.90
51839;DHT22;37886;53.174;6.368;2023-02-23T04:42:52;7.30;99.90
51839;DHT22;37886;53.174;6.368;2023-02-23T04:45:18;7.30;99.90
51839;DHT22;37886;53.174;6.368;2023-02-23T04:47:43;7.30;99.90
51839;DHT22;37886;53.174;6.368;2023-02-23T04:50:10;7.40;99.90
51839;DHT22;37886;53.174;6.368;2023-02-23T04:52:37;7.30;99.90
51839;DHT22;37886;53.174;6.368;2023-02-23T04:55:05;7.30;99.90
51839;DHT22;37886;53.174;6.368;2023-02-23T04:57:32;7.40;99.90
51839;DHT22;37886;53.174;6.368;2023-02-23T04:59:59;7.40;99.90
51839;DHT22;37886;53.174;6.368;2023-02-23T05:02:25;7.40;99.90
51839;DHT22;37886;53.174;6.368;2023-02-23T05:04:51;7.40;99.90
51839;DHT22;37886;53.174;6.368;2023-02-23T05:07:17;7.40;99.90
51839;DHT22;37886;53.174;6.368;2023-02-23T05:09:43;7.40;99.90
51839;DHT22;37886;53.174;6.368;2023-02-23T05:12:09;7.40;99.90
51839;DHT22;37886;53.174;6.368;2023-02-23T05:14:34;7.40;99.90
51839;DHT22;37886;53.174;6.368;2023-02-23T05:17:00;7.40;99.90
51839;DHT22;37886;53.174;6.368;2023-02-23T05:19:26;7.40;99.90
51839;DHT22;37886;53.174;6.368;2023-02-23T05:21:52;7.40;99.90
51839;DHT22;37886;53.174;6.368;2023-02-23T05:24:18;7.40;99.90
51839;DHT22;37886;53.174;6.368;2023-02-23T05:26:44;7.40;99.90
51839;DHT22;37886;53.174;6.368;2023-02-23T05:29:10;7.40;99.90
51839;DHT22;37886;53.174;6.368;2023-02-23T05:31:36;7.40;99.90
51839;DHT22;37886;53.174;6.368;2023-02-23T05:34:01;7.40;99.90
51839;DHT22;37886;53.174;6.368;2023-02-23T05:36:27;7.50;99.90
51839;DHT22;37886;53.174;6.368;2023-02-23T05:38:53;7.40;99.90
51839;DHT22;37886;53.174;6.368;2023-02-23T05:41:21;7.40;99.90
51839;DHT22;37886;53.174;6.368;2023-02-23T05:43:48;7.50;99.90
51839;DHT22;37886;53.174;6.368;2023-02-23T05:46:20;7.40;99.90
51839;DHT22;37886;53.174;6.368;2023-02-23T05:48:46;7.40;99.90
51839;DHT22;37886;53.174;6.368;2023-02-23T05:51:13;7.50;99.90
51839;DHT22;37886;53.174;6.368;2023-02-23T05:53:40;7.50;99.90
51839;DHT22;37886;53.174;6.368;2023-02-23T05:56:07;7.40;99.90
51839;DHT22;37886;53.174;6.368;2023-02-23T05:58:36;7.40;99.90
51839;DHT22;37886;53.174;6.368;2023-02-23T06:01:02;7.50;99.90
51839;DHT22;37886;53.174;6.368;2023-02-23T06:03:28;7.40;99.90
51839;DHT22;37886;53.174;6.368;2023-02-23T06:05:57;7.40;99.90
51839;DHT22;37886;53.174;6.368;2023-02-23T06:08:24;7.40;99.90
51839;DHT22;37886;53.174;6.368;2023-02-23T06:10:51;7.40;99.90
51839;DHT22;37886;53.174;6.368;2023-02-23T06:13:16;7.40;99.90
51839;DHT22;37886;53.174;6.368;2023-02-23T06:15:43;7.30;99.90
51839;DHT22;37886;53.174;6.368;2023-02-23T06:18:09;7.40;99.90
51839;DHT22;37886;53.174;6.368;2023-02-23T06:20:36;7.40;99.90
51839;DHT22;37886;53.174;6.368;2023-02-23T06:23:02;7.30;99.90
51839;DHT22;37886;53.174;6.368;2023-02-23T06:25:29;7.30;99.90
51839;DHT22;37886;53.174;6.368;2023-02-23T06:27:54;7.30;99.90
51839;DHT22;37886;53.174;6.368;2023-02-23T06:30:20;7.30;99.90
51839;DHT22;37886;53.174;6.368;2023-02-23T06:32:47;7.30;99.90
51839;DHT22;37886;53.174;6.368;2023-02-23T06:35:12;7.30;99.90
51839;DHT22;37886;53.174;6.368;2023-02-23T06:37:38;7.40;99.90
51839;DHT22;37886;53.174;6.368;2023-02-23T06:40:13;7.40;99.90
51839;DHT22;37886;53.174;6.368;2023-02-23T06:42:39;7.30;99.90
51839;DHT22;37886;53.174;6.368;2023-02-23T06:45:07;7.30;99.90
51839;DHT22;37886;53.174;6.368;2023-02-23T06:47:32;7.30;99.90
51839;DHT22;37886;53.174;6.368;2023-02-23T06:49:58;7.30;99.90
51839;DHT22;37886;53.174;6.368;2023-02-23T06:52:24;7.30;99.90
51839;DHT22;37886;53.174;6.368;2023-02-23T06:55:11;7.20;99.90
51839;DHT22;37886;53.174;6.368;2023-02-23T06:57:37;7.20;99.90
51839;DHT22;37886;53.174;6.368;2023-02-23T07:00:04;7.20;99.90
51839;DHT22;37886;53.174;6.368;2023-02-23T07:02:30;7.20;99.90
51839;DHT22;37886;53.174;6.368;2023-02-23T07:04:56;7.20;99.90
51839;DHT22;37886;53.174;6.368;2023-02-23T07:07:23;7.20;99.90
51839;DHT22;37886;53.174;6.368;2023-02-23T07:09:49;7.20;99.90
51839;DHT22;37886;53.174;6.368;2023-02-23T07:12:14;7.20;99.90
51839;DHT22;37886;53.174;6.368;2023-02-23T07:14:40;7.20;99.90
51839;DHT22;37886;53.174;6.368;2023-02-23T07:17:06;7.20;99.90
51839;DHT22;37886;53.174;6.368;2023-02-23T07:19:32;7.20;99.90
51839;DHT22;37886;53.174;6.368;2023-02-23T07:21:57;7.20;99.90
51839;DHT22;37886;53.174;6.368;2023-02-23T07:24:23;7.20;99.90
51839;DHT22;37886;53.174;6.368;2023-02-23T07:26:49;7.20;99.90
51839;DHT22;37886;53.174;6.368;2023-02-23T07:29:16;7.20;99.90
51839;DHT22;37886;53.174;6.368;2023-02-23T07:31:42;7.30;99.90
51839;DHT22;37886;53.174;6.368;2023-02-23T07:34:08;7.30;99.90
51839;DHT22;37886;53.174;6.368;2023-02-23T07:36:34;7.20;99.90
51839;DHT22;37886;53.174;6.368;2023-02-23T07:39:01;7.20;99.90
51839;DHT22;37886;53.174;6.368;2023-02-23T07:41:26;7.20;99.90
51839;DHT22;37886;53.174;6.368;2023-02-23T07:43:52;7.20;99.90
51839;DHT22;37886;53.174;6.368;2023-02-23T07:46:18;7.30;99.90
51839;DHT22;37886;53.174;6.368;2023-02-23T07:48:44;7.20;99.90
51839;DHT22;37886;53.174;6.368;2023-02-23T07:51:11;7.30;99.90
51839;DHT22;37886;53.174;6.368;2023-02-23T07:53:38;7.20;99.90
51839;DHT22;37886;53.174;6.368;2023-02-23T07:56:04;7.30;99.90
51839;DHT22;37886;53.174;6.368;2023-02-23T07:58:30;7.30;99.90
51839;DHT22;37886;53.174;6.368;2023-02-23T08:00:56;7.30;99.90
51839;DHT22;37886;53.174;6.368;2023-02-23T08:03:22;7.30;99.90
51839;DHT22;37886;53.174;6.368;2023-02-23T08:05:48;7.30;99.90
51839;DHT22;37886;53.174;6.368;2023-02-23T08:08:14;7.30;99.90
51839;DHT22;37886;53.174;6.368;2023-02-23T08:10:40;7.40;99.90
51839;DHT22;37886;53.174;6.368;2023-02-23T08:13:06;7.40;99.90
51839;DHT22;37886;53.174;6.368;2023-02-23T08:15:32;7.40;99.90
51839;DHT22;37886;53.174;6.368;2023-02-23T08:17:57;7.40;99.90
51839;DHT22;37886;53.174;6.368;2023-02-23T08:20:24;7.40;99.90
51839;DHT22;37886;53.174;6.368;2023-02-23T08:22:53;7.40;99.90
51839;DHT22;37886;53.174;6.368;2023-02-23T08:25:20;7.40;99.90
51839;DHT22;37886;53.174;6.368;2023-02-23T08:27:46;7.40;99.90
51839;DHT22;37886;53.174;6.368;2023-02-23T08:30:13;7.40;99.90
51839;DHT22;37886;53.174;6.368;2023-02-23T08:32:39;7.50;99.90
51839;DHT22;37886;53.174;6.368;2023-02-23T08:35:05;7.50;99.90
51839;DHT22;37886;53.174;6.368;2023-02-23T08:37:32;7.40;99.90
51839;DHT22;37886;53.174;6.368;2023-02-23T08:39:58;7.50;99.90
51839;DHT22;37886;53.174;6.368;2023-02-23T08:42:25;7.40;99.90
51839;DHT22;37886;53.174;6.368;2023-02-23T08:44:51;7.50;99.90
51839;DHT22;37886;53.174;6.368;2023-02-23T08:47:17;7.50;99.90
51839;DHT22;37886;53.174;6.368;2023-02-23T08:49:48;7.50;99.90
51839;DHT22;37886;53.174;6.368;2023-02-23T08:52:14;7.50;99.90
51839;DHT22;37886;53.174;6.368;2023-02-23T08:54:40;7.50;99.90
51839;DHT22;37886;53.174;6.368;2023-02-23T08:57:06;7.60;99.90
51839;DHT22;37886;53.174;6.368;2023-02-23T08:59:31;7.60;99.90
51839;DHT22;37886;53.174;6.368;2023-02-23T09:01:57;7.60;99.90
51839;DHT22;37886;53.174;6.368;2023-02-23T09:04:23;7.60;99.90
51839;DHT22;37886;53.174;6.368;2023-02-23T09:06:49;7.70;99.90
51839;DHT22;37886;53.174;6.368;2023-02-23T09:09:15;7.80;99.90
51839;DHT22;37886;53.174;6.368;2023-02-23T09:11:41;7.80;99.90
51839;DHT22;37886;53.174;6.368;2023-02-23T09:14:07;7.80;99.90
51839;DHT22;37886;53.174;6.368;2023-02-23T09:16:34;7.80;99.90
51839;DHT22;37886;53.174;6.368;2023-02-23T09:19:01;7.80;99.90
51839;DHT22;37886;53.174;6.368;2023-02-23T09:21:27;7.90;99.90
51839;DHT22;37886;53.174;6.368;2023-02-23T09:23:54;7.90;99.90
51839;DHT22;37886;53.174;6.368;2023-02-23T09:26:22;8.00;99.90
51839;DHT22;37886;53.174;6.368;2023-02-23T09:28:48;8.10;99.90
51839;DHT22;37886;53.174;6.368;2023-02-23T09:31:17;8.10;99.90
51839;DHT22;37886;53.174;6.368;2023-02-23T09:33:43;8.10;99.90
51839;DHT22;37886;53.174;6.368;2023-02-23T09:36:11;8.20;99.90
51839;DHT22;37886;53.174;6.368;2023-02-23T09:38:41;8.30;99.90
51839;DHT22;37886;53.174;6.368;2023-02-23T09:49:17;8.70;99.90
51839;DHT22;37886;53.174;6.368;2023-02-23T09:51:48;8.80;99.90
51839;DHT22;37886;53.174;6.368;2023-02-23T09:54:25;8.70;99.90
51839;DHT22;37886;53.174;6.368;2023-02-23T09:56:52;8.70;99.90
51839;DHT22;37886;53.174;6.368;2023-02-23T09:59:21;8.70;99.90
51839;DHT22;37886;53.174;6.368;2023-02-23T10:04:42;8.80;99.90
51839;DHT22;37886;53.174;6.368;2023-02-23T10:12:58;9.00;99.90
51839;DHT22;37886;53.174;6.368;2023-02-23T10:15:33;9.00;99.90
51839;DHT22;37886;53.174;6.368;2023-02-23T10:18:34;9.10;99.90
51839;DHT22;37886;53.174;6.368;2023-02-23T10:23:42;8.90;99.90
51839;DHT22;37886;53.174;6.368;2023-02-23T10:26:10;8.90;99.90
51839;DHT22;37886;53.174;6.368;2023-02-23T10:28:40;8.90;99.90
51839;DHT22;37886;53.174;6.368;2023-02-23T10:31:26;8.80;99.90
51839;DHT22;37886;53.174;6.368;2023-02-23T10:33:56;8.70;99.90
51839;DHT22;37886;53.174;6.368;2023-02-23T10:36:36;8.60;99.90
51839;DHT22;37886;53.174;6.368;2023-02-23T10:39:05;8.70;99.90
51839;DHT22;37886;53.174;6.368;2023-02-23T10:41:32;8.70;99.90
51839;DHT22;37886;53.174;6.368;2023-02-23T10:43:58;8.60;99.90
51839;DHT22;37886;53.174;6.368;2023-02-23T10:46:28;8.70;99.90
51839;DHT22;37886;53.174;6.368;2023-02-23T10:48:56;8.90;99.90
51839;DHT22;37886;53.174;6.368;2023-02-23T10:51:28;8.90;99.90
51839;DHT22;37886;53.174;6.368;2023-02-23T10:53:56;9.00;99.90
51839;DHT22;37886;53.174;6.368;2023-02-23T10:56:22;9.00;99.90
51839;DHT22;37886;53.174;6.368;2023-02-23T11:01:37;9.00;99.90
51839;DHT22;37886;53.174;6.368;2023-02-23T11:04:19;9.00;99.90
51839;DHT22;37886;53.174;6.368;2023-02-23T11:06:47;8.90;99.90
51839;DHT22;37886;53.174;6.368;2023-02-23T11:09:23;8.90;99.90
51839;DHT22;37886;53.174;6.368;2023-02-23T11:12:03;9.00;99.90
51839;DHT22;37886;53.174;6.368;2023-02-23T11:14:41;9.00;99.90
51839;DHT22;37886;53.174;6.368;2023-02-23T11:17:23;9.10;99.90
51839;DHT22;37886;53.174;6.368;2023-02-23T11:19:49;9.20;99.90
51839;DHT22;37886;53.174;6.368;2023-02-23T11:22:19;9.20;99.90
51839;DHT22;37886;53.174;6.368;2023-02-23T11:24:48;9.30;99.90
51839;DHT22;37886;53.174;6.368;2023-02-23T11:27:21;9.30;99.90
51839;DHT22;37886;53.174;6.368;2023-02-23T11:29:48;9.30;99.90
51839;DHT22;37886;53.174;6.368;2023-02-23T11:32:27;9.20;99.90
51839;DHT22;37886;53.174;6.368;2023-02-23T11:35:30;9.20;99.90
51839;DHT22;37886;53.174;6.368;2023-02-23T11:37:56;9.30;99.90
51839;DHT22;37886;53.174;6.368;2023-02-23T11:40:28;9.30;99.90
51839;DHT22;37886;53.174;6.368;2023-02-23T11:43:07;9.30;99.90
51839;DHT22;37886;53.174;6.368;2023-02-23T11:45:57;9.30;99.90
51839;DHT22;37886;53.174;6.368;2023-02-23T11:50:51;9.40;99.90
51839;DHT22;37886;53.174;6.368;2023-02-23T11:53:25;9.30;99.90
51839;DHT22;37886;53.174;6.368;2023-02-23T11:55:54;9.30;99.90
51839;DHT22;37886;53.174;6.368;2023-02-23T11:58:39;9.20;99.90
51839;DHT22;37886;53.174;6.368;2023-02-23T12:01:10;9.20;99.90
51839;DHT22;37886;53.174;6.368;2023-02-23T12:03:50;9.20;99.90
51839;DHT22;37886;53.174;6.368;2023-02-23T12:06:35;9.10;99.90
51839;DHT22;37886;53.174;6.368;2023-02-23T12:09:22;9.00;99.90
51839;DHT22;37886;53.174;6.368;2023-02-23T12:12:05;9.00;99.90
51839;DHT22;37886;53.174;6.368;2023-02-23T12:14:52;9.00;99.90
51839;DHT22;37886;53.174;6.368;2023-02-23T12:17:26;8.90;99.90
51839;DHT22;37886;53.174;6.368;2023-02-23T12:20:04;8.90;99.90
51839;DHT22;37886;53.174;6.368;2023-02-23T12:22:39;8.90;99.90
51839;DHT22;37886;53.174;6.368;2023-02-23T12:28:19;8.90;99.90
51839;DHT22;37886;53.174;6.368;2023-02-23T12:31:03;8.80;99.90
51839;DHT22;37886;53.174;6.368;2023-02-23T12:33:37;8.80;99.90
51839;DHT22;37886;53.174;6.368;2023-02-23T12:41:56;9.00;99.90
51839;DHT22;37886;53.174;6.368;2023-02-23T12:47:07;9.00;99.90
51839;DHT22;37886;53.174;6.368;2023-02-23T12:49:40;8.90;99.90
51839;DHT22;37886;53.174;6.368;2023-02-23T12:53:16;8.80;99.90
51839;DHT22;37886;53.174;6.368;2023-02-23T12:55:11;8.60;99.90
51839;DHT22;37886;53.174;6.368;2023-02-23T13:01:15;8.10;99.90
51839;DHT22;37886;53.174;6.368;2023-02-23T13:06:56;8.00;99.90
51839;DHT22;37886;53.174;6.368;2023-02-23T13:17:39;7.70;99.90
51839;DHT22;37886;53.174;6.368;2023-02-23T13:20:13;7.60;99.90
51839;DHT22;37886;53.174;6.368;2023-02-23T13:23:04;7.60;99.90
51839;DHT22;37886;53.174;6.368;2023-02-23T13:31:32;7.40;99.90
51839;DHT22;37886;53.174;6.368;2023-02-23T13:34:00;7.30;99.90
51839;DHT22;37886;53.174;6.368;2023-02-23T13:36:28;7.30;99.90
51839;DHT22;37886;53.174;6.368;2023-02-23T13:42:02;7.20;99.90
51839;DHT22;37886;53.174;6.368;2023-02-23T13:44:38;7.30;99.90
51839;DHT22;37886;53.174;6.368;2023-02-23T13:49:53;7.30;99.90
51839;DHT22;37886;53.174;6.368;2023-02-23T13:52:36;7.20;99.90
51839;DHT22;37886;53.174;6.368;2023-02-23T13:57:55;7.20;99.90
51839;DHT22;37886;53.174;6.368;2023-02-23T14:00:27;7.30;99.90
51839;DHT22;37886;53.174;6.368;2023-02-23T14:02:53;7.30;99.90
51839;DHT22;37886;53.174;6.368;2023-02-23T14:05:24;7.30;99.90
51839;DHT22;37886;53.174;6.368;2023-02-23T14:07:59;7.20;99.90
51839;DHT22;37886;53.174;6.368;2023-02-23T14:10:40;7.20;99.90
51839;DHT22;37886;53.174;6.368;2023-02-23T14:15:47;7.20;99.90
51839;DHT22;37886;53.174;6.368;2023-02-23T14:24:01;7.10;99.90
51839;DHT22;37886;53.174;6.368;2023-02-23T14:34:21;6.90;99.90
51839;DHT22;37886;53.174;6.368;2023-02-23T14:36:48;6.90;99.90
51839;DHT22;37886;53.174;6.368;2023-02-23T14:39:21;6.90;99.90
51839;DHT22;37886;53.174;6.368;2023-02-23T14:41:56;6.90;99.90
51839;DHT22;37886;53.174;6.368;2023-02-23T14:44:29;6.90;99.90
51839;DHT22;37886;53.174;6.368;2023-02-23T14:47:14;6.90;99.90
51839;DHT22;37886;53.174;6.368;2023-02-23T14:49:50;6.80;99.90
51839;DHT22;37886;53.174;6.368;2023-02-23T14:52:23;6.70;99.90
51839;DHT22;37886;53.174;6.368;2023-02-23T14:54:50;6.70;99.90
51839;DHT22;37886;53.174;6.368;2023-02-23T14:57:22;6.70;99.90
51839;DHT22;37886;53.174;6.368;2023-02-23T14:59:59;6.80;99.90
51839;DHT22;37886;53.174;6.368;2023-02-23T15:02:28;6.80;99.90
51839;DHT22;37886;53.174;6.368;2023-02-23T15:04:54;6.80;99.90
51839;DHT22;37886;53.174;6.368;2023-02-23T15:07:38;6.80;99.90
51839;DHT22;37886;53.174;6.368;2023-02-23T15:10:13;7.00;99.90
51839;DHT22;37886;53.174;6.368;2023-02-23T15:12:41;6.90;99.90
51839;DHT22;37886;53.174;6.368;2023-02-23T15:15:17;7.00;99.90
51839;DHT22;37886;53.174;6.368;2023-02-23T15:17:45;6.90;99.90
51839;DHT22;37886;53.174;6.368;2023-02-23T15:20:17;6.90;99.90
51839;DHT22;37886;53.174;6.368;2023-02-23T15:22:50;7.00;99.90
51839;DHT22;37886;53.174;6.368;2023-02-23T15:25:21;7.00;99.90
51839;DHT22;37886;53.174;6.368;2023-02-23T15:27:48;7.00;99.90
51839;DHT22;37886;53.174;6.368;2023-02-23T15:30:24;7.10;99.90
51839;DHT22;37886;53.174;6.368;2023-02-23T15:33:04;7.10;99.90
51839;DHT22;37886;53.174;6.368;2023-02-23T15:35:34;7.10;99.90
51839;DHT22;37886;53.174;6.368;2023-02-23T15:38:05;7.00;99.90
51839;DHT22;37886;53.174;6.368;2023-02-23T15:40:32;7.00;99.90
51839;DHT22;37886;53.174;6.368;2023-02-23T15:42:58;7.00;99.90
51839;DHT22;37886;53.174;6.368;2023-02-23T15:45:35;7.00;99.90
51839;DHT22;37886;53.174;6.368;2023-02-23T15:48:06;6.90;99.90
51839;DHT22;37886;53.174;6.368;2023-02-23T15:50:35;6.90;99.90
51839;DHT22;37886;53.174;6.368;2023-02-23T15:56:24;6.80;99.90
51839;DHT22;37886;53.174;6.368;2023-02-23T15:58:55;6.80;99.90
51839;DHT22;37886;53.174;6.368;2023-02-23T16:01:29;6.70;99.90
51839;DHT22;37886;53.174;6.368;2023-02-23T16:04:06;6.70;99.90
51839;DHT22;37886;53.174;6.368;2023-02-23T16:06:37;6.70;99.90
51839;DHT22;37886;53.174;6.368;2023-02-23T16:09:19;6.60;99.90
51839;DHT22;37886;53.174;6.368;2023-02-23T16:12:03;6.60;99.90
51839;DHT22;37886;53.174;6.368;2023-02-23T16:14:41;6.60;99.90
51839;DHT22;37886;53.174;6.368;2023-02-23T16:19:46;6.50;99.90
51839;DHT22;37886;53.174;6.368;2023-02-23T16:22:19;6.40;99.90
51839;DHT22;37886;53.174;6.368;2023-02-23T16:24:58;6.40;99.90
51839;DHT22;37886;53.174;6.368;2023-02-23T16:27:25;6.40;99.90
51839;DHT22;37886;53.174;6.368;2023-02-23T16:29:58;6.40;99.90
51839;DHT22;37886;53.174;6.368;2023-02-23T16:32:36;6.30;99.90
51839;DHT22;37886;53.174;6.368;2023-02-23T16:35:22;6.30;99.90
51839;DHT22;37886;53.174;6.368;2023-02-23T16:37:57;6.30;99.90
51839;DHT22;37886;53.174;6.368;2023-02-23T16:40:23;6.30;99.90
51839;DHT22;37886;53.174;6.368;2023-02-23T16:42:49;6.20;99.90
51839;DHT22;37886;53.174;6.368;2023-02-23T16:45:16;6.20;99.90
51839;DHT22;37886;53.174;6.368;2023-02-23T16:47:44;6.20;99.90
51839;DHT22;37886;53.174;6.368;2023-02-23T16:50:21;6.20;99.90
51839;DHT22;37886;53.174;6.368;2023-02-23T16:52:50;6.20;99.90
51839;DHT22;37886;53.174;6.368;2023-02-23T16:55:26;6.10;99.90
51839;DHT22;37886;53.174;6.368;2023-02-23T16:57:58;6.10;99.90
51839;DHT22;37886;53.174;6.368;2023-02-23T17:00:31;6.10;99.90
51839;DHT22;37886;53.174;6.368;2023-02-23T17:02:57;6.10;99.90
51839;DHT22;37886;53.174;6.368;2023-02-23T17:05:26;6.10;99.90
51839;DHT22;37886;53.174;6.368;2023-02-23T17:07:52;6.00;99.90
51839;DHT22;37886;53.174;6.368;2023-02-23T17:10:25;5.90;99.90
51839;DHT22;37886;53.174;6.368;2023-02-23T17:13:03;5.80;99.90
51839;DHT22;37886;53.174;6.368;2023-02-23T17:15:35;5.70;99.90
51839;DHT22;37886;53.174;6.368;2023-02-23T17:18:02;5.70;99.90
51839;DHT22;37886;53.174;6.368;2023-02-23T17:20:28;5.60;99.90
51839;DHT22;37886;53.174;6.368;2023-02-23T17:22:56;5.50;99.90
51839;DHT22;37886;53.174;6.368;2023-02-23T17:25:23;5.40;99.90
51839;DHT22;37886;53.174;6.368;2023-02-23T17:27:51;5.30;99.90
51839;DHT22;37886;53.174;6.368;2023-02-23T17:30:17;5.10;99.90
51839;DHT22;37886;53.174;6.368;2023-02-23T17:32:43;5.00;99.90
51839;DHT22;37886;53.174;6.368;2023-02-23T17:35:09;4.90;99.90
51839;DHT22;37886;53.174;6.368;2023-02-23T17:37:36;4.80;99.90
51839;DHT22;37886;53.174;6.368;2023-02-23T17:40:06;4.70;99.90
51839;DHT22;37886;53.174;6.368;2023-02-23T17:42:33;4.50;99.90
51839;DHT22;37886;53.174;6.368;2023-02-23T17:45:03;4.40;99.90
51839;DHT22;37886;53.174;6.368;2023-02-23T17:51:22;4.20;99.90
51839;DHT22;37886;53.174;6.368;2023-02-23T17:53:48;4.00;99.90
51839;DHT22;37886;53.174;6.368;2023-02-23T17:56:14;4.00;99.90
51839;DHT22;37886;53.174;6.368;2023-02-23T17:58:42;3.80;99.90
51839;DHT22;37886;53.174;6.368;2023-02-23T18:01:08;3.80;99.90
51839;DHT22;37886;53.174;6.368;2023-02-23T18:03:35;3.60;99.90
51839;DHT22;37886;53.174;6.368;2023-02-23T18:06:03;3.70;99.90
51839;DHT22;37886;53.174;6.368;2023-02-23T18:08:29;3.70;99.90
51839;DHT22;37886;53.174;6.368;2023-02-23T18:10:55;3.70;99.90
51839;DHT22;37886;53.174;6.368;2023-02-23T18:13:22;3.60;99.90
51839;DHT22;37886;53.174;6.368;2023-02-23T18:15:53;3.60;99.90
51839;DHT22;37886;53.174;6.368;2023-02-23T18:18:20;3.60;99.90